Airfield :
LOGIN :

Register | Disclaimer

   EN    FR    IT 

 










Legend :    VFR   Marginal VFR   IFR   Intensive IFR   Very Intensive IFR
Visi :
Ceiling :
>= 8 km
>= 3000ft
5 to 8 km
1000 to 3000 ft
1500m to 5 km
500 to 1000 ft
800 to 1500m
200 to 500 ft
< 800m
< 200 ft
Symbols :   Thunderstorms  Fog  Heavy snow  Heavy precipitations  Wind > 20 kt
SIGMETs :     Misc.  Thunderstorms  Icing  Turbulence  Mountain Waves  Volcanic Ashes






- Airport Elevation : 407 ft


EGDM - MoD Boscombe Down Amesbury

CURRENT METAR :
  • 221050Z 28019G30KT 9999 FEW025 12/06 Q1021 NOSIG RMK BLU BLU

EXPIRED METARs :
  • 221020Z 29018KT 9999 FEW023 SCT042 12/06 Q1021 NOSIG RMK BLU BLU
  • 220950Z 29017KT 9999 FEW023 SCT036 12/06 Q1021 NOSIG RMK BLU BLU
  • 220920Z 29015KT 9999 BKN038 11/05 Q1021 NOSIG RMK BLU BLU
  • 220850Z 28010KT 9999 BKN036 09/05 Q1021 NOSIG RMK BLU BLU

TAF TAF EGDM
Valid from the 22 at 12:00 until the 22 at 17:00 UTC


221037Z 2212/2217 28013KT 9999 SCT035
PROB40
TEMPO 2212/2214 29015G25KT



MET'MAP, your aeronautical weather chart ! - Copyright ORBIFLY December 2007 - Disclaimer

ORBIFLY MET'MAP TEAM :

Programming & Development : Alexandra Zaïnal
Concept & original design : Baudouin d'Aumeries
Assistance for programming : Marc-Olivier Méhu
Technical & hardware support : Manuel Goepfert

Contact : metmap@orbifly.com




SOURCES & CREDITS :

   NOAA